createdAt,value
2017-05-20T00:00:19.097Z,30.3
2017-05-20T00:01:19.166Z,30.3
2017-05-20T00:02:19.643Z,30.3
2017-05-20T00:03:16.532Z,30.3
2017-05-20T00:04:19.308Z,30.2
2017-05-20T00:05:19.439Z,30.3
2017-05-20T00:06:16.558Z,30.3
2017-05-20T00:07:16.599Z,30.2
2017-05-20T00:08:19.865Z,30.3
2017-05-20T00:09:17.447Z,30.3
2017-05-20T00:10:19.821Z,30.3
2017-05-20T00:11:19.943Z,30.2
2017-05-20T00:12:19.872Z,30.3
2017-05-20T00:13:17.373Z,30.3
2017-05-20T00:14:20.006Z,30.3
2017-05-20T00:15:17.159Z,30.2
2017-05-20T00:16:20.168Z,30.3
2017-05-20T00:17:17.289Z,30.3
2017-05-20T00:18:20.203Z,30.2
2017-05-20T00:19:17.818Z,30.2
2017-05-20T00:20:17.473Z,30.2
2017-05-20T00:21:20.365Z,30.2
2017-05-20T00:22:20.487Z,30.2
2017-05-20T00:23:20.620Z,30.2
2017-05-20T00:24:20.626Z,30.2
2017-05-20T00:25:20.810Z,30.3
2017-05-20T00:26:20.725Z,30.3
2017-05-20T00:27:17.867Z,30.2
2017-05-20T00:28:20.734Z,30.2
2017-05-20T00:29:17.919Z,30.3
2017-05-20T00:30:20.816Z,30.3
2017-05-20T00:31:21.008Z,30.3
2017-05-20T00:32:18.069Z,30.2
2017-05-20T00:33:20.866Z,30.2
2017-05-20T00:34:18.027Z,30.2
2017-05-20T00:35:18.069Z,30.2
2017-05-20T00:36:18.311Z,30.3
2017-05-20T00:37:18.563Z,30.3
2017-05-20T00:38:21.134Z,30.3
2017-05-20T00:39:21.338Z,30.2
2017-05-20T00:40:21.223Z,30.2
2017-05-20T00:41:18.429Z,30.2
2017-05-20T00:42:18.651Z,30.2
2017-05-20T00:43:18.794Z,30.2
2017-05-20T00:44:21.519Z,30.2
2017-05-20T00:45:21.582Z,30.2
2017-05-20T00:46:18.847Z,30.2
2017-05-20T00:47:21.755Z,30.2
2017-05-20T00:48:21.858Z,30.2
2017-05-20T00:49:19.208Z,30.2
2017-05-20T00:50:18.879Z,30.2
2017-05-20T00:51:18.929Z,30.2
2017-05-20T00:52:21.951Z,30.2
2017-05-20T00:53:19.262Z,30.2
2017-05-20T00:54:22.035Z,30.2
2017-05-20T00:55:19.360Z,30.2
2017-05-20T00:56:19.300Z,30.2
2017-05-20T00:57:22.208Z,30.2
2017-05-20T00:58:22.256Z,30.2
2017-05-20T00:59:19.432Z,30.2
2017-05-20T01:00:22.916Z,30.2
2017-05-20T01:01:22.561Z,30.2
2017-05-20T01:02:22.506Z,30.2
2017-05-20T01:03:19.743Z,30.2
2017-05-20T01:04:19.856Z,30.2
2017-05-20T01:05:19.869Z,30.2
2017-05-20T01:06:22.672Z,30.2
2017-05-20T01:07:23.013Z,30.2
2017-05-20T01:08:22.923Z,30.2
2017-05-20T01:09:22.836Z,30.2
2017-05-20T01:10:20.152Z,30.2
2017-05-20T01:11:20.057Z,30.2
2017-05-20T01:12:23.015Z,30.2
2017-05-20T01:13:23.372Z,30.2
2017-05-20T01:14:20.329Z,30.2
2017-05-20T01:15:20.435Z,30.2
2017-05-20T01:16:23.338Z,30.2
2017-05-20T01:17:23.238Z,30.2
2017-05-20T01:18:23.420Z,30.2
2017-05-20T01:19:23.589Z,30.2
2017-05-20T01:20:20.637Z,30.2
2017-05-20T01:21:23.514Z,30.2
2017-05-20T01:22:23.631Z,30.2
2017-05-20T01:23:23.536Z,30.2
2017-05-20T01:24:23.544Z,30.2
2017-05-20T01:25:23.894Z,30.2
2017-05-20T01:26:20.724Z,30.2
2017-05-20T01:27:23.649Z,30.2
2017-05-20T01:28:20.756Z,30.2
2017-05-20T01:29:23.755Z,30.2
2017-05-20T01:30:23.857Z,30.2
2017-05-20T01:31:24.071Z,30.2
2017-05-20T01:32:21.028Z,30.2
2017-05-20T01:33:21.235Z,30.2
2017-05-20T01:34:21.156Z,30.2
2017-05-20T01:35:21.190Z,30.2
2017-05-20T01:36:24.086Z,30.2
2017-05-20T01:37:24.470Z,30.2
2017-05-20T01:38:21.410Z,30.2
2017-05-20T01:39:24.331Z,30.2
2017-05-20T01:40:21.630Z,30.2
2017-05-20T01:41:21.652Z,30.2
2017-05-20T01:42:24.498Z,30.2
2017-05-20T01:43:24.719Z,30.2
2017-05-20T01:44:24.590Z,30.2
2017-05-20T01:45:21.750Z,30.2
2017-05-20T01:46:21.913Z,30.2
2017-05-20T01:47:21.895Z,30.2
2017-05-20T01:48:24.806Z,30.2
2017-05-20T01:49:22.160Z,30.2
2017-05-20T01:50:22.022Z,30.2
2017-05-20T01:51:25.038Z,30.2
2017-05-20T01:52:25.159Z,30.2
2017-05-20T01:53:25.046Z,30.2
2017-05-20T01:54:22.248Z,30.2
2017-05-20T01:55:25.504Z,30.2
2017-05-20T01:56:25.276Z,30.2
2017-05-20T01:57:25.341Z,30.2
2017-05-20T01:58:22.733Z,30.2
2017-05-20T01:59:25.620Z,30.2
2017-05-20T02:00:25.546Z,30.1
2017-05-20T02:01:25.904Z,30.2
2017-05-20T02:02:25.681Z,30.2
2017-05-20T02:03:25.864Z,30.2
2017-05-20T02:04:23.030Z,30.1
2017-05-20T02:05:22.948Z,30.2
2017-05-20T02:06:26.185Z,30.2
2017-05-20T02:07:23.258Z,30.2
2017-05-20T02:08:26.016Z,30.2
2017-05-20T02:09:23.333Z,30.2
2017-05-20T02:10:26.074Z,30.1
2017-05-20T02:11:26.097Z,30.2
2017-05-20T02:12:26.387Z,30.2
2017-05-20T02:13:23.437Z,30.1
2017-05-20T02:14:26.197Z,30.2
2017-05-20T02:15:23.355Z,30.2
2017-05-20T02:16:26.369Z,30.1
2017-05-20T02:17:26.392Z,30.2
2017-05-20T02:18:23.766Z,30.2
2017-05-20T02:19:23.811Z,30.2
2017-05-20T02:20:26.571Z,30.1
2017-05-20T02:21:23.897Z,30.2
2017-05-20T02:22:23.907Z,30.2
2017-05-20T02:23:26.764Z,30.2
2017-05-20T02:24:24.046Z,30.1
2017-05-20T02:25:26.754Z,30.2
2017-05-20T02:26:23.963Z,30.2
2017-05-20T02:27:26.951Z,30.2
2017-05-20T02:28:24.124Z,30.2
2017-05-20T02:29:27.000Z,30.2
2017-05-20T02:30:27.122Z,30.2
2017-05-20T02:31:27.164Z,30.2
2017-05-20T02:32:27.136Z,30.2
2017-05-20T02:33:27.169Z,30.2
2017-05-20T02:34:24.499Z,30.2
2017-05-20T02:35:27.251Z,30.2
2017-05-20T02:36:27.629Z,30.2
2017-05-20T02:37:24.577Z,30.1
2017-05-20T02:38:27.343Z,30.2
2017-05-20T02:39:27.341Z,30.2
2017-05-20T02:40:27.451Z,30.2
2017-05-20T02:41:27.504Z,30.1
2017-05-20T02:42:27.730Z,30.2
2017-05-20T02:43:24.744Z,30.1
2017-05-20T02:44:27.591Z,30.1
2017-05-20T02:45:27.737Z,30.2
2017-05-20T02:46:27.817Z,30.2
2017-05-20T02:47:27.764Z,30.2
2017-05-20T02:48:25.290Z,30.1
2017-05-20T02:49:25.149Z,30.1
2017-05-20T02:50:28.004Z,30.2
2017-05-20T02:51:25.080Z,30.1
2017-05-20T02:52:25.286Z,30.1
2017-05-20T02:53:28.106Z,30.1
2017-05-20T02:54:25.607Z,30.2
2017-05-20T02:55:25.311Z,30.2
2017-05-20T02:56:25.504Z,30.1
2017-05-20T02:57:28.312Z,30.2
2017-05-20T02:58:28.418Z,30.2
2017-05-20T02:59:25.433Z,30.2
2017-05-20T03:00:28.555Z,30.1
2017-05-20T03:01:28.550Z,30.1
2017-05-20T03:02:28.583Z,30.1
2017-05-20T03:03:25.642Z,30.1
2017-05-20T03:04:25.718Z,30.1
2017-05-20T03:05:25.762Z,30.1
2017-05-20T03:06:25.936Z,30.1
2017-05-20T03:07:26.015Z,30.1
2017-05-20T03:08:28.795Z,30.1
2017-05-20T03:09:25.962Z,30.1
2017-05-20T03:10:28.959Z,30.1
2017-05-20T03:11:29.135Z,30.1
2017-05-20T03:12:29.116Z,30.1
2017-05-20T03:13:26.296Z,30.1
2017-05-20T03:14:29.206Z,30.1
2017-05-20T03:15:29.110Z,30.1
2017-05-20T03:16:26.406Z,30.1
2017-05-20T03:17:26.597Z,30.1
2017-05-20T03:18:29.258Z,30.1
2017-05-20T03:19:29.316Z,30.1
2017-05-20T03:20:26.488Z,30.1
2017-05-20T03:21:29.507Z,30.1
2017-05-20T03:22:26.580Z,30.1
2017-05-20T03:23:26.980Z,30.1
2017-05-20T03:24:29.586Z,30.1
2017-05-20T03:25:26.744Z,30.1
2017-05-20T03:26:26.927Z,30.1
2017-05-20T03:27:26.966Z,30.1
2017-05-20T03:28:26.866Z,30.1
2017-05-20T03:29:27.225Z,30.1
2017-05-20T03:30:29.887Z,30.1
2017-05-20T03:31:30.047Z,30.1
2017-05-20T03:32:27.144Z,30.1
2017-05-20T03:33:30.047Z,30.1
2017-05-20T03:34:30.198Z,30.1
2017-05-20T03:35:30.297Z,30.1
2017-05-20T03:36:27.425Z,30.1
2017-05-20T03:37:30.271Z,30.1
2017-05-20T03:38:27.480Z,30.1
2017-05-20T03:39:30.341Z,30.1
2017-05-20T03:40:30.363Z,30.1
2017-05-20T03:41:27.731Z,30.1
2017-05-20T03:42:30.425Z,30.1
2017-05-20T03:43:27.723Z,30.1
2017-05-20T03:44:30.574Z,30.1
2017-05-20T03:45:30.659Z,30.1
2017-05-20T03:46:30.753Z,30.1
2017-05-20T03:47:28.153Z,30.1
2017-05-20T03:48:27.930Z,30.1
2017-05-20T03:49:27.913Z,30.1
2017-05-20T03:50:30.827Z,30.1
2017-05-20T03:51:28.177Z,30.1
2017-05-20T03:52:30.966Z,30.1
2017-05-20T03:53:28.465Z,30.1
2017-05-20T03:54:28.193Z,30.1
2017-05-20T03:55:31.159Z,30.1
2017-05-20T03:56:31.332Z,30.1
2017-05-20T03:57:31.329Z,30.1
2017-05-20T03:58:28.411Z,30.1
2017-05-20T03:59:31.536Z,30.1
2017-05-20T04:00:28.424Z,30.1
2017-05-20T04:01:31.365Z,30.1
2017-05-20T04:02:31.534Z,30.1
2017-05-20T04:03:28.648Z,30.1
2017-05-20T04:04:31.509Z,30.1
2017-05-20T04:05:28.971Z,30.1
2017-05-20T04:06:28.815Z,30.2
2017-05-20T04:07:31.682Z,30.2
2017-05-20T04:08:28.929Z,30.2
2017-05-20T04:09:31.853Z,30.2
2017-05-20T04:10:29.000Z,30.2
2017-05-20T04:11:32.075Z,30.2
2017-05-20T04:12:31.880Z,30.2
2017-05-20T04:13:28.985Z,30.2
2017-05-20T04:14:31.926Z,30.1
2017-05-20T04:15:29.108Z,30.2
2017-05-20T04:16:29.137Z,30.2
2017-05-20T04:17:32.237Z,30.2
2017-05-20T04:18:29.376Z,30.1
2017-05-20T04:19:32.291Z,30.2
2017-05-20T04:20:29.477Z,30.2
2017-05-20T04:21:32.358Z,30.2
2017-05-20T04:22:29.391Z,30.2
2017-05-20T04:23:29.762Z,30.1
2017-05-20T04:24:29.648Z,30.2
2017-05-20T04:25:29.695Z,30.2
2017-05-20T04:26:32.562Z,30.2
2017-05-20T04:27:32.453Z,30.2
2017-05-20T04:28:29.645Z,30.2
2017-05-20T04:29:32.671Z,30.2
2017-05-20T04:30:29.619Z,30.2
2017-05-20T04:31:32.519Z,30.2
2017-05-20T04:32:32.671Z,30.2
2017-05-20T04:33:32.689Z,30.2
2017-05-20T04:34:29.713Z,30.2
2017-05-20T04:35:30.009Z,30.2
2017-05-20T04:36:32.811Z,30.2
2017-05-20T04:37:29.880Z,30.2
2017-05-20T04:38:32.913Z,30.2
2017-05-20T04:39:33.038Z,30.2
2017-05-20T04:40:33.010Z,30.2
2017-05-20T04:41:30.360Z,30.2
2017-05-20T04:42:30.103Z,30.2
2017-05-20T04:43:30.269Z,30.2
2017-05-20T04:44:33.137Z,30.3
2017-05-20T04:45:33.095Z,30.3
2017-05-20T04:46:30.234Z,30.3
2017-05-20T04:47:33.522Z,30.2
2017-05-20T04:48:30.357Z,30.3
2017-05-20T04:49:30.421Z,30.3
2017-05-20T04:50:30.589Z,30.3
2017-05-20T04:51:30.630Z,30.3
2017-05-20T04:52:33.409Z,30.3
2017-05-20T04:53:33.738Z,30.3
2017-05-20T04:54:30.768Z,30.3
2017-05-20T04:55:33.674Z,30.3
2017-05-20T04:56:33.654Z,30.3
2017-05-20T04:57:33.695Z,30.3
2017-05-20T04:58:30.862Z,30.3
2017-05-20T04:59:31.115Z,30.3
2017-05-20T05:00:33.811Z,30.3
2017-05-20T05:01:33.957Z,30.3
2017-05-20T05:02:33.962Z,30.4
2017-05-20T05:03:33.949Z,30.4
2017-05-20T05:04:31.156Z,30.4
2017-05-20T05:05:34.334Z,30.4
2017-05-20T05:06:34.195Z,30.4
2017-05-20T05:07:34.256Z,30.3
2017-05-20T05:08:31.373Z,30.4
2017-05-20T05:09:31.558Z,30.4
2017-05-20T05:10:34.422Z,30.4
2017-05-20T05:11:34.652Z,30.4
2017-05-20T05:12:31.570Z,30.3
2017-05-20T05:13:34.466Z,30.4
2017-05-20T05:14:34.620Z,30.4
2017-05-20T05:15:34.686Z,30.4
2017-05-20T05:16:31.925Z,30.4
2017-05-20T05:17:35.022Z,30.4
2017-05-20T05:18:34.887Z,30.4
2017-05-20T05:19:34.910Z,30.4
2017-05-20T05:20:31.943Z,30.4
2017-05-20T05:21:32.004Z,30.4
2017-05-20T05:22:35.013Z,30.5
2017-05-20T05:23:35.283Z,30.5
2017-05-20T05:24:35.200Z,30.5
2017-05-20T05:25:32.292Z,30.5
2017-05-20T05:26:32.466Z,30.4
2017-05-20T05:27:32.390Z,30.5
2017-05-20T05:28:35.334Z,30.5
2017-05-20T05:29:32.949Z,30.5
2017-05-20T05:30:32.806Z,30.5
2017-05-20T05:31:35.630Z,30.5
2017-05-20T05:32:32.862Z,30.5
2017-05-20T05:33:35.745Z,30.5
2017-05-20T05:34:35.626Z,30.5
2017-05-20T05:35:35.963Z,30.5
2017-05-20T05:36:35.855Z,30.5
2017-05-20T05:37:33.066Z,30.5
2017-05-20T05:38:33.114Z,30.5
2017-05-20T05:39:35.965Z,30.6
2017-05-20T05:40:33.099Z,30.6
2017-05-20T05:41:36.257Z,30.6
2017-05-20T05:42:33.341Z,30.6
2017-05-20T05:43:36.232Z,30.6
2017-05-20T05:44:33.277Z,30.6
2017-05-20T05:45:36.210Z,30.6
2017-05-20T05:46:36.353Z,30.6
2017-05-20T05:47:33.630Z,30.6
2017-05-20T05:48:36.358Z,30.6
2017-05-20T05:49:36.382Z,30.6
2017-05-20T05:50:36.522Z,30.6
2017-05-20T05:51:36.517Z,30.6
2017-05-20T05:52:36.610Z,30.6
2017-05-20T05:53:33.963Z,30.6
2017-05-20T05:54:36.668Z,30.6
2017-05-20T05:55:33.995Z,30.6
2017-05-20T05:56:34.042Z,30.6
2017-05-20T05:57:36.787Z,30.6
2017-05-20T05:58:34.014Z,30.7
2017-05-20T05:59:37.094Z,30.7
2017-05-20T06:00:34.074Z,30.7
2017-05-20T06:01:37.114Z,30.7
2017-05-20T06:02:34.268Z,30.7
2017-05-20T06:03:34.296Z,30.7
2017-05-20T06:04:34.427Z,30.7
2017-05-20T06:05:37.342Z,30.7
2017-05-20T06:06:37.178Z,30.8
2017-05-20T06:07:37.401Z,30.8
2017-05-20T06:08:34.436Z,30.7
2017-05-20T06:09:34.649Z,30.7
2017-05-20T06:10:34.576Z,30.7
2017-05-20T06:11:37.804Z,30.7
2017-05-20T06:12:37.717Z,30.7
2017-05-20T06:13:34.977Z,30.7
2017-05-20T06:14:35.034Z,30.8
2017-05-20T06:15:37.896Z,30.8
2017-05-20T06:16:37.775Z,30.8
2017-05-20T06:17:38.147Z,30.8
2017-05-20T06:18:37.860Z,30.7
2017-05-20T06:19:37.921Z,30.8
2017-05-20T06:20:35.221Z,30.8
2017-05-20T06:21:38.109Z,30.8
2017-05-20T06:22:37.988Z,30.8
2017-05-20T06:23:35.467Z,30.8
2017-05-20T06:24:35.309Z,30.7
2017-05-20T06:25:35.371Z,30.7
2017-05-20T06:26:35.404Z,30.8
2017-05-20T06:27:35.328Z,30.8
2017-05-20T06:28:38.235Z,30.8
2017-05-20T06:29:35.897Z,30.8
2017-05-20T06:30:38.382Z,30.8
2017-05-20T06:31:38.431Z,30.8
2017-05-20T06:32:35.661Z,30.8
2017-05-20T06:33:35.811Z,30.8
2017-05-20T06:34:38.725Z,30.8
2017-05-20T06:35:39.102Z,30.8
2017-05-20T06:36:35.886Z,30.9
2017-05-20T06:37:38.816Z,30.9
2017-05-20T06:38:36.161Z,30.9
2017-05-20T06:39:36.048Z,30.9
2017-05-20T06:40:38.969Z,30.9
2017-05-20T06:41:39.178Z,30.9
2017-05-20T06:42:39.015Z,30.9
2017-05-20T06:43:39.054Z,30.9
2017-05-20T06:44:39.306Z,30.9
2017-05-20T06:45:39.327Z,30.9
2017-05-20T06:46:39.207Z,30.9
2017-05-20T06:47:39.697Z,30.9
2017-05-20T06:48:39.476Z,30.9
2017-05-20T06:49:36.514Z,30.9
2017-05-20T06:50:36.561Z,30.9
2017-05-20T06:51:39.610Z,31
2017-05-20T06:52:39.627Z,30.9
2017-05-20T06:53:40.389Z,31
2017-05-20T06:54:36.734Z,31
2017-05-20T06:55:36.769Z,31
2017-05-20T06:56:36.943Z,31
2017-05-20T06:57:39.879Z,31
2017-05-20T06:58:39.927Z,31
2017-05-20T06:59:40.097Z,31
2017-05-20T07:00:37.101Z,31
2017-05-20T07:01:41.985Z,31
2017-05-20T07:02:39.950Z,31
2017-05-20T07:03:37.198Z,31
2017-05-20T07:04:37.307Z,31.1
2017-05-20T07:05:37.403Z,31.1
2017-05-20T07:06:37.427Z,31.1
2017-05-20T07:07:37.331Z,31.1
2017-05-20T07:08:37.519Z,31.1
2017-05-20T07:09:40.443Z,31.1
2017-05-20T07:10:37.432Z,31.1
2017-05-20T07:11:40.510Z,31.1
2017-05-20T07:12:37.607Z,31.2
2017-05-20T07:13:40.499Z,31.2
2017-05-20T07:14:37.694Z,31.2
2017-05-20T07:15:40.588Z,31.2
2017-05-20T07:16:40.567Z,31.2
2017-05-20T07:17:37.899Z,31.2
2017-05-20T07:18:38.003Z,31.2
2017-05-20T07:19:40.784Z,31.2
2017-05-20T07:20:38.127Z,31.2
2017-05-20T07:21:40.915Z,31.3
2017-05-20T07:22:38.351Z,31.3
2017-05-20T07:23:41.113Z,31.3
2017-05-20T07:24:38.332Z,31.3
2017-05-20T07:25:39.042Z,31.4
2017-05-20T07:26:38.290Z,31.4
2017-05-20T07:27:41.319Z,31.4
2017-05-20T07:28:41.485Z,31.4
2017-05-20T07:29:38.391Z,31.5
2017-05-20T07:30:38.390Z,31.5
2017-05-20T07:31:38.452Z,31.5
2017-05-20T07:32:41.567Z,31.5
2017-05-20T07:33:41.477Z,31.6
2017-05-20T07:34:41.644Z,31.6
2017-05-20T07:35:38.649Z,31.6
2017-05-20T07:36:38.784Z,31.7
2017-05-20T07:37:41.767Z,31.7
2017-05-20T07:38:38.736Z,31.7
2017-05-20T07:39:38.932Z,31.7
2017-05-20T07:40:39.129Z,31.7
2017-05-20T07:41:38.982Z,31.7
2017-05-20T07:42:42.717Z,31.7
2017-05-20T07:43:42.021Z,31.7
2017-05-20T07:44:42.017Z,31.8
2017-05-20T07:45:42.141Z,31.8
2017-05-20T07:46:39.362Z,31.7
2017-05-20T07:47:42.182Z,31.8
2017-05-20T07:48:42.321Z,31.8
2017-05-20T07:49:39.358Z,31.8
2017-05-20T07:50:42.341Z,31.8
2017-05-20T07:51:39.659Z,31.8
2017-05-20T07:52:39.713Z,31.9
2017-05-20T07:53:39.631Z,31.8
2017-05-20T07:54:42.435Z,31.9
2017-05-20T07:55:42.510Z,32
2017-05-20T07:56:39.856Z,32
2017-05-20T07:57:42.706Z,32.1
2017-05-20T07:58:43.031Z,32.2
2017-05-20T07:59:42.866Z,32.2
2017-05-20T08:00:42.925Z,32.3
2017-05-20T08:01:42.942Z,32.4
2017-05-20T08:02:40.505Z,32.4
2017-05-20T08:03:40.004Z,32.5
2017-05-20T08:04:40.400Z,32.5
2017-05-20T08:05:43.152Z,32.5
2017-05-20T08:06:43.083Z,32.5
2017-05-20T08:07:43.144Z,32.5
2017-05-20T08:08:40.444Z,32.6
2017-05-20T08:09:41.847Z,32.6
2017-05-20T08:10:43.591Z,32.6
2017-05-20T08:11:40.465Z,32.6
2017-05-20T08:12:40.557Z,32.7
2017-05-20T08:13:40.776Z,32.7
2017-05-20T08:14:40.728Z,32.7
2017-05-20T08:15:40.812Z,32.7
2017-05-20T08:16:41.149Z,32.7
2017-05-20T08:17:44.698Z,32.7
2017-05-20T08:18:41.062Z,32.7
2017-05-20T08:19:44.106Z,32.7
2017-05-20T08:20:41.161Z,32.8
2017-05-20T08:21:41.229Z,32.8
2017-05-20T08:22:44.767Z,32.8
2017-05-20T08:23:44.513Z,32.9
2017-05-20T08:24:42.822Z,32.9
2017-05-20T08:25:42.108Z,32.9
2017-05-20T08:26:46.265Z,33
2017-05-20T08:27:44.675Z,33
2017-05-20T08:28:41.943Z,33.1
2017-05-20T08:29:45.376Z,33.1
2017-05-20T08:30:44.744Z,33.1
2017-05-20T08:31:41.923Z,33.1
2017-05-20T08:32:42.161Z,33.1
2017-05-20T08:33:42.151Z,33
2017-05-20T08:34:45.067Z,32.8
2017-05-20T08:35:45.114Z,32.8
2017-05-20T08:36:45.686Z,32.7
2017-05-20T08:37:45.099Z,32.6
2017-05-20T08:38:45.246Z,32.5
2017-05-20T08:39:45.139Z,32.5
2017-05-20T08:40:45.451Z,32.5
2017-05-20T08:41:45.799Z,32.5
2017-05-20T08:42:45.421Z,32.5
2017-05-20T08:43:45.307Z,32.4
2017-05-20T08:44:42.600Z,32.3
2017-05-20T08:45:45.406Z,32.3
2017-05-20T08:46:45.683Z,32.2
2017-05-20T08:47:42.542Z,32.2
2017-05-20T08:48:46.153Z,32.2
2017-05-20T08:49:45.554Z,32.1
2017-05-20T08:50:42.571Z,32.1
2017-05-20T08:51:42.618Z,32
2017-05-20T08:52:43.073Z,32
2017-05-20T08:53:45.618Z,32
2017-05-20T08:54:46.166Z,32
2017-05-20T08:55:42.928Z,31.9
2017-05-20T08:56:45.679Z,31.9
2017-05-20T08:57:42.932Z,31.9
2017-05-20T08:58:43.311Z,31.9
2017-05-20T08:59:45.935Z,31.8
2017-05-20T09:00:43.088Z,31.8
2017-05-20T09:01:45.926Z,31.8
2017-05-20T09:02:45.936Z,31.8
2017-05-20T09:03:43.678Z,31.8
2017-05-20T09:04:43.421Z,31.8
2017-05-20T09:05:46.047Z,31.8
2017-05-20T09:06:46.231Z,31.8
2017-05-20T09:07:46.370Z,31.7
2017-05-20T09:08:46.323Z,31.7
2017-05-20T09:09:43.604Z,31.7
2017-05-20T09:10:43.669Z,31.7
2017-05-20T09:11:43.593Z,31.7
2017-05-20T09:12:43.676Z,31.7
2017-05-20T09:13:47.217Z,31.7
2017-05-20T09:14:46.521Z,31.7
2017-05-20T09:15:46.709Z,31.6
2017-05-20T09:16:44.564Z,31.6
2017-05-20T09:17:46.738Z,31.6
2017-05-20T09:18:46.778Z,31.6
2017-05-20T09:19:46.849Z,31.6
2017-05-20T09:20:46.724Z,31.5
2017-05-20T09:21:46.787Z,31.6
2017-05-20T09:22:44.290Z,31.5
2017-05-20T09:23:47.045Z,31.5
2017-05-20T09:24:46.925Z,31.5
2017-05-20T09:25:47.017Z,31.5
2017-05-20T09:26:44.232Z,31.5
2017-05-20T09:27:47.277Z,31.5
2017-05-20T09:28:47.501Z,31.5
2017-05-20T09:29:47.429Z,31.5
2017-05-20T09:30:44.632Z,31.5
2017-05-20T09:31:44.672Z,31.5
2017-05-20T09:32:44.821Z,31.5
2017-05-20T09:33:47.643Z,31.4
2017-05-20T09:34:45.020Z,31.5
2017-05-20T09:35:44.889Z,31.5
2017-05-20T09:36:47.858Z,31.5
2017-05-20T09:37:48.572Z,31.5
2017-05-20T09:38:45.055Z,31.4
2017-05-20T09:39:48.154Z,31.4
2017-05-20T09:40:45.650Z,31.4
2017-05-20T09:41:47.993Z,31.4
2017-05-20T09:42:47.979Z,31.4
2017-05-20T09:43:45.203Z,31.4
2017-05-20T09:44:48.056Z,31.4
2017-05-20T09:45:45.356Z,31.4
2017-05-20T09:46:48.065Z,31.4
2017-05-20T09:47:46.610Z,31.4
2017-05-20T09:48:45.440Z,31.4
2017-05-20T09:49:46.128Z,31.4
2017-05-20T09:50:45.529Z,31.4
2017-05-20T09:51:48.696Z,31.4
2017-05-20T09:52:48.533Z,31.4
2017-05-20T09:53:48.669Z,31.4
2017-05-20T09:54:45.856Z,31.4
2017-05-20T09:55:48.692Z,31.4
2017-05-20T09:56:45.924Z,31.3
2017-05-20T09:57:46.453Z,31.4
2017-05-20T09:58:48.937Z,31.4
2017-05-20T09:59:46.247Z,31.3
2017-05-20T10:00:50.121Z,31.4
2017-05-20T10:01:49.241Z,31.4
2017-05-20T10:02:46.308Z,31.3
2017-05-20T10:03:46.647Z,31.3
2017-05-20T10:04:46.423Z,31.4
2017-05-20T10:05:49.374Z,31.3
2017-05-20T10:06:46.632Z,31.3
2017-05-20T10:07:49.533Z,31.3
2017-05-20T10:08:49.500Z,31.3
2017-05-20T10:09:47.010Z,31.3
2017-05-20T10:10:46.817Z,31.3
2017-05-20T10:11:47.606Z,31.3
2017-05-20T10:12:49.643Z,31.3
2017-05-20T10:13:47.093Z,31.3
2017-05-20T10:14:50.776Z,31.3
2017-05-20T10:15:50.259Z,31.3
2017-05-20T10:16:51.525Z,31.3
2017-05-20T10:17:51.043Z,31.3
2017-05-20T10:18:50.098Z,31.3
2017-05-20T10:19:47.304Z,31.3
2017-05-20T10:20:47.788Z,31.3
2017-05-20T10:21:50.336Z,31.3
2017-05-20T10:22:47.288Z,31.3
2017-05-20T10:23:50.260Z,31.3
2017-05-20T10:24:50.197Z,31.3
2017-05-20T10:25:50.295Z,31.3
2017-05-20T10:26:50.221Z,31.3
2017-05-20T10:27:47.600Z,31.3
2017-05-20T10:28:50.363Z,31.3
2017-05-20T10:29:50.454Z,31.3
2017-05-20T10:30:47.527Z,31.3
2017-05-20T10:31:50.585Z,31.3
2017-05-20T10:32:47.630Z,31.3
2017-05-20T10:33:50.738Z,31.3
2017-05-20T10:34:50.660Z,31.3
2017-05-20T10:35:50.761Z,31.3
2017-05-20T10:36:48.099Z,31.3
2017-05-20T10:37:50.959Z,31.3
2017-05-20T10:38:48.219Z,31.3
2017-05-20T10:39:48.115Z,31.3
2017-05-20T10:40:48.304Z,31.3
2017-05-20T10:41:48.274Z,31.3
2017-05-20T10:42:51.232Z,31.3
2017-05-20T10:43:51.183Z,31.3
2017-05-20T10:44:51.341Z,31.3
2017-05-20T10:45:52.060Z,31.3
2017-05-20T10:46:51.423Z,31.3
2017-05-20T10:47:48.420Z,31.3
2017-05-20T10:48:48.424Z,31.3
2017-05-20T10:49:48.436Z,31.3
2017-05-20T10:50:51.468Z,31.3
2017-05-20T10:51:48.478Z,31.3
2017-05-20T10:52:48.710Z,31.3
2017-05-20T10:53:51.614Z,31.3
2017-05-20T10:54:51.625Z,31.3
2017-05-20T10:55:48.867Z,31.3
2017-05-20T10:56:49.118Z,31.3
2017-05-20T10:57:48.748Z,31.3
2017-05-20T10:58:48.957Z,31.3
2017-05-20T10:59:48.801Z,31.3
2017-05-20T11:00:51.734Z,31.3
2017-05-20T11:01:49.091Z,31.3
2017-05-20T11:02:49.349Z,31.3
2017-05-20T11:03:52.125Z,31.3
2017-05-20T11:04:49.307Z,31.3
2017-05-20T11:05:49.363Z,31.2
2017-05-20T11:06:49.283Z,31.3
2017-05-20T11:07:52.248Z,31.3
2017-05-20T11:08:49.860Z,31.3
2017-05-20T11:09:52.517Z,31.3
2017-05-20T11:10:49.692Z,31.3
2017-05-20T11:11:49.597Z,31.2
2017-05-20T11:12:52.537Z,31.3
2017-05-20T11:13:53.273Z,31.3
2017-05-20T11:14:52.923Z,31.2
2017-05-20T11:15:49.984Z,31.3
2017-05-20T11:16:52.906Z,31.2
2017-05-20T11:17:49.999Z,31.2
2017-05-20T11:18:50.131Z,31.2
2017-05-20T11:19:53.870Z,31.3
2017-05-20T11:20:53.059Z,31.3
2017-05-20T11:21:53.093Z,31.3
2017-05-20T11:22:50.287Z,31.3
2017-05-20T11:23:50.363Z,31.3
2017-05-20T11:24:53.865Z,31.3
2017-05-20T11:25:50.656Z,31.3
2017-05-20T11:26:50.383Z,31.3
2017-05-20T11:27:53.482Z,31.3
2017-05-20T11:28:51.179Z,31.3
2017-05-20T11:29:53.568Z,31.3
2017-05-20T11:30:54.173Z,31.3
2017-05-20T11:31:53.840Z,31.3
2017-05-20T11:32:50.737Z,31.3
2017-05-20T11:33:53.627Z,31.3
2017-05-20T11:34:53.721Z,31.2
2017-05-20T11:35:50.780Z,31.3
2017-05-20T11:36:50.910Z,31.3
2017-05-20T11:37:51.086Z,31.3
2017-05-20T11:38:50.987Z,31.3
2017-05-20T11:39:54.002Z,31.3
2017-05-20T11:40:54.032Z,31.2
2017-05-20T11:41:51.129Z,31.3
2017-05-20T11:42:54.161Z,31.3
2017-05-20T11:43:54.464Z,31.3
2017-05-20T11:44:54.066Z,31.3
2017-05-20T11:45:54.115Z,31.3
2017-05-20T11:46:54.100Z,31.2
2017-05-20T11:47:51.464Z,31.3
2017-05-20T11:48:55.102Z,31.3
2017-05-20T11:49:51.645Z,31.3
2017-05-20T11:50:52.455Z,31.3
2017-05-20T11:51:51.753Z,31.3
2017-05-20T11:52:54.532Z,31.3
2017-05-20T11:53:51.686Z,31.3
2017-05-20T11:54:52.343Z,31.3
2017-05-20T11:55:52.767Z,31.3
2017-05-20T11:56:51.924Z,31.3
2017-05-20T11:57:52.078Z,31.3
2017-05-20T11:58:51.921Z,31.3
2017-05-20T11:59:54.861Z,31.3
2017-05-20T12:00:52.322Z,31.3
2017-05-20T12:01:54.929Z,31.3
2017-05-20T12:02:52.273Z,31.3
2017-05-20T12:03:53.382Z,31.3
2017-05-20T12:04:52.998Z,31.3
2017-05-20T12:05:53.104Z,31.2
2017-05-20T12:06:56.323Z,31.3
2017-05-20T12:07:53.927Z,31.3
2017-05-20T12:08:53.890Z,31.3
2017-05-20T12:09:54.244Z,31.2
2017-05-20T12:10:55.559Z,31.3
2017-05-20T12:11:55.645Z,31.3
2017-05-20T12:12:53.668Z,31.3
2017-05-20T12:13:52.733Z,31.3
2017-05-20T12:14:52.770Z,31.3
2017-05-20T12:15:53.297Z,31.3
2017-05-20T12:16:55.739Z,31.2
2017-05-20T12:17:52.903Z,31.2
2017-05-20T12:18:56.075Z,31.2
2017-05-20T12:19:53.126Z,31.2
2017-05-20T12:20:55.812Z,31.2
2017-05-20T12:21:52.900Z,31.2
2017-05-20T12:22:53.064Z,31.2
2017-05-20T12:23:55.911Z,31.2
2017-05-20T12:24:56.052Z,31.3
2017-05-20T12:25:53.091Z,31.2
2017-05-20T12:26:56.062Z,31.3
2017-05-20T12:27:56.105Z,31.3
2017-05-20T12:28:56.132Z,31.2
2017-05-20T12:29:56.699Z,31.2
2017-05-20T12:30:56.565Z,31.2
2017-05-20T12:31:56.346Z,31.2
2017-05-20T12:32:56.967Z,31.2
2017-05-20T12:33:56.505Z,31.2
2017-05-20T12:34:53.525Z,31.2
2017-05-20T12:35:53.722Z,31.2
2017-05-20T12:36:56.834Z,31.2
2017-05-20T12:37:56.635Z,31.2
2017-05-20T12:38:56.764Z,31.2
2017-05-20T12:39:56.712Z,31.2
2017-05-20T12:40:56.837Z,31.2
2017-05-20T12:41:56.884Z,31.2
2017-05-20T12:42:54.103Z,31.2
2017-05-20T12:43:56.976Z,31.2
2017-05-20T12:44:57.997Z,31.2
2017-05-20T12:45:56.950Z,31.2
2017-05-20T12:46:57.077Z,31.2
2017-05-20T12:47:54.232Z,31.2
2017-05-20T12:48:54.437Z,31.2
2017-05-20T12:49:54.315Z,31.2
2017-05-20T12:50:54.916Z,31.2
2017-05-20T12:51:54.196Z,31.2
2017-05-20T12:52:54.275Z,31.2
2017-05-20T12:53:54.289Z,31.2
2017-05-20T12:54:54.650Z,31.2
2017-05-20T12:55:55.021Z,31.2
2017-05-20T12:56:57.411Z,31.2
2017-05-20T12:57:54.663Z,31.2
2017-05-20T12:58:54.739Z,31.2
2017-05-20T12:59:54.817Z,31.2
2017-05-20T13:00:54.906Z,31.2
2017-05-20T13:01:54.947Z,31.2
2017-05-20T13:02:57.753Z,31.2
2017-05-20T13:03:55.130Z,31.2
2017-05-20T13:04:55.096Z,31.2
2017-05-20T13:05:55.199Z,31.2
2017-05-20T13:06:58.072Z,31.2
2017-05-20T13:07:58.088Z,31.3
2017-05-20T13:08:55.338Z,31.3
2017-05-20T13:09:58.286Z,31.3
2017-05-20T13:10:58.368Z,31.2
2017-05-20T13:11:55.409Z,31.3
2017-05-20T13:12:55.561Z,31.3
2017-05-20T13:13:58.576Z,31.2
2017-05-20T13:14:55.798Z,31.3
2017-05-20T13:15:58.659Z,31.3
2017-05-20T13:16:58.703Z,31.2
2017-05-20T13:17:58.688Z,31.3
2017-05-20T13:18:55.969Z,31.3
2017-05-20T13:19:58.911Z,31.2